sensor_id;sensor_type;location;lat;lon;timestamp;P1;durP1;ratioP1;P2;durP2;ratioP2
54909;SDS011;63189;51.240;9.964;2023-10-08T00:01:34;8.55;;;3.72;;
54909;SDS011;63189;51.240;9.964;2023-10-08T00:04:00;9.85;;;3.60;;
54909;SDS011;63189;51.240;9.964;2023-10-08T00:06:29;12.45;;;4.32;;
54909;SDS011;63189;51.240;9.964;2023-10-08T00:08:55;6.63;;;3.67;;
54909;SDS011;63189;51.240;9.964;2023-10-08T00:11:25;8.23;;;3.47;;
54909;SDS011;63189;51.240;9.964;2023-10-08T00:13:51;12.48;;;3.72;;
54909;SDS011;63189;51.240;9.964;2023-10-08T00:16:21;11.65;;;4.03;;
54909;SDS011;63189;51.240;9.964;2023-10-08T00:18:46;6.90;;;3.58;;
54909;SDS011;63189;51.240;9.964;2023-10-08T00:21:16;14.40;;;4.20;;
54909;SDS011;63189;51.240;9.964;2023-10-08T00:23:44;7.78;;;3.55;;
54909;SDS011;63189;51.240;9.964;2023-10-08T00:26:17;11.10;;;4.15;;
54909;SDS011;63189;51.240;9.964;2023-10-08T00:28:45;10.93;;;4.40;;
54909;SDS011;63189;51.240;9.964;2023-10-08T00:31:13;12.30;;;5.00;;
54909;SDS011;63189;51.240;9.964;2023-10-08T00:33:42;11.20;;;4.43;;
54909;SDS011;63189;51.240;9.964;2023-10-08T00:36:09;11.38;;;4.78;;
54909;SDS011;63189;51.240;9.964;2023-10-08T00:38:44;12.02;;;4.85;;
54909;SDS011;63189;51.240;9.964;2023-10-08T00:41:15;10.10;;;4.53;;
54909;SDS011;63189;51.240;9.964;2023-10-08T00:43:41;11.93;;;4.47;;
54909;SDS011;63189;51.240;9.964;2023-10-08T00:46:10;8.85;;;3.95;;
54909;SDS011;63189;51.240;9.964;2023-10-08T00:48:52;17.42;;;4.68;;
54909;SDS011;63189;51.240;9.964;2023-10-08T00:51:21;10.55;;;4.30;;
54909;SDS011;63189;51.240;9.964;2023-10-08T00:53:55;9.55;;;4.28;;
54909;SDS011;63189;51.240;9.964;2023-10-08T00:56:27;17.48;;;4.82;;
54909;SDS011;63189;51.240;9.964;2023-10-08T00:59:13;10.27;;;5.38;;
54909;SDS011;63189;51.240;9.964;2023-10-08T01:01:40;10.60;;;4.13;;
54909;SDS011;63189;51.240;9.964;2023-10-08T01:04:14;14.10;;;5.10;;
54909;SDS011;63189;51.240;9.964;2023-10-08T01:06:40;11.13;;;4.65;;
54909;SDS011;63189;51.240;9.964;2023-10-08T01:09:06;11.85;;;4.20;;
54909;SDS011;63189;51.240;9.964;2023-10-08T01:11:46;9.18;;;3.70;;
54909;SDS011;63189;51.240;9.964;2023-10-08T01:14:37;14.38;;;5.85;;
54909;SDS011;63189;51.240;9.964;2023-10-08T01:17:07;9.32;;;4.53;;
54909;SDS011;63189;51.240;9.964;2023-10-08T01:19:32;9.88;;;5.50;;
54909;SDS011;63189;51.240;9.964;2023-10-08T01:22:03;13.00;;;5.25;;
54909;SDS011;63189;51.240;9.964;2023-10-08T01:24:31;14.23;;;5.47;;
54909;SDS011;63189;51.240;9.964;2023-10-08T01:26:59;18.02;;;6.22;;
54909;SDS011;63189;51.240;9.964;2023-10-08T01:29:25;13.18;;;5.20;;
54909;SDS011;63189;51.240;9.964;2023-10-08T01:31:53;13.30;;;5.57;;
54909;SDS011;63189;51.240;9.964;2023-10-08T01:34:22;16.02;;;5.80;;
54909;SDS011;63189;51.240;9.964;2023-10-08T01:36:52;11.27;;;5.05;;
54909;SDS011;63189;51.240;9.964;2023-10-08T01:39:18;12.00;;;5.38;;
54909;SDS011;63189;51.240;9.964;2023-10-08T01:41:43;12.57;;;5.45;;
54909;SDS011;63189;51.240;9.964;2023-10-08T01:44:10;14.75;;;6.05;;
54909;SDS011;63189;51.240;9.964;2023-10-08T01:46:35;12.85;;;6.50;;
54909;SDS011;63189;51.240;9.964;2023-10-08T01:49:01;12.30;;;6.50;;
54909;SDS011;63189;51.240;9.964;2023-10-08T01:51:33;14.75;;;6.30;;
54909;SDS011;63189;51.240;9.964;2023-10-08T01:54:11;14.57;;;6.10;;
54909;SDS011;63189;51.240;9.964;2023-10-08T01:56:39;11.50;;;5.50;;
54909;SDS011;63189;51.240;9.964;2023-10-08T01:59:12;14.75;;;6.60;;
54909;SDS011;63189;51.240;9.964;2023-10-08T02:01:39;17.17;;;6.40;;
54909;SDS011;63189;51.240;9.964;2023-10-08T02:04:05;15.45;;;6.90;;
54909;SDS011;63189;51.240;9.964;2023-10-08T02:06:37;12.90;;;5.95;;
54909;SDS011;63189;51.240;9.964;2023-10-08T02:09:05;12.25;;;6.28;;
54909;SDS011;63189;51.240;9.964;2023-10-08T02:11:47;10.88;;;6.15;;
54909;SDS011;63189;51.240;9.964;2023-10-08T02:14:15;11.85;;;6.22;;
54909;SDS011;63189;51.240;9.964;2023-10-08T02:16:42;14.95;;;6.50;;
54909;SDS011;63189;51.240;9.964;2023-10-08T02:19:10;17.85;;;6.80;;
54909;SDS011;63189;51.240;9.964;2023-10-08T02:21:36;15.27;;;6.88;;
54909;SDS011;63189;51.240;9.964;2023-10-08T02:24:04;17.13;;;7.85;;
54909;SDS011;63189;51.240;9.964;2023-10-08T02:26:32;15.48;;;7.85;;
54909;SDS011;63189;51.240;9.964;2023-10-08T02:28:59;15.48;;;7.65;;
54909;SDS011;63189;51.240;9.964;2023-10-08T02:31:31;14.82;;;7.45;;
54909;SDS011;63189;51.240;9.964;2023-10-08T02:33:56;15.80;;;7.70;;
54909;SDS011;63189;51.240;9.964;2023-10-08T02:36:24;18.45;;;7.95;;
54909;SDS011;63189;51.240;9.964;2023-10-08T02:38:49;13.38;;;7.38;;
54909;SDS011;63189;51.240;9.964;2023-10-08T02:41:17;13.15;;;7.38;;
54909;SDS011;63189;51.240;9.964;2023-10-08T02:43:43;21.05;;;8.18;;
54909;SDS011;63189;51.240;9.964;2023-10-08T02:46:10;18.00;;;7.90;;
54909;SDS011;63189;51.240;9.964;2023-10-08T02:48:40;15.23;;;7.53;;
54909;SDS011;63189;51.240;9.964;2023-10-08T02:51:06;20.15;;;8.32;;
54909;SDS011;63189;51.240;9.964;2023-10-08T02:53:41;17.73;;;7.75;;
54909;SDS011;63189;51.240;9.964;2023-10-08T02:56:10;21.70;;;8.45;;
54909;SDS011;63189;51.240;9.964;2023-10-08T02:58:41;19.77;;;7.63;;
54909;SDS011;63189;51.240;9.964;2023-10-08T03:01:12;14.15;;;7.53;;
54909;SDS011;63189;51.240;9.964;2023-10-08T03:03:41;21.45;;;8.40;;
54909;SDS011;63189;51.240;9.964;2023-10-08T03:06:07;19.45;;;7.93;;
54909;SDS011;63189;51.240;9.964;2023-10-08T03:08:40;23.27;;;9.10;;
54909;SDS011;63189;51.240;9.964;2023-10-08T03:11:08;15.52;;;7.35;;
54909;SDS011;63189;51.240;9.964;2023-10-08T03:13:42;12.30;;;7.03;;
54909;SDS011;63189;51.240;9.964;2023-10-08T03:16:11;16.95;;;8.00;;
54909;SDS011;63189;51.240;9.964;2023-10-08T03:18:38;22.65;;;8.60;;
54909;SDS011;63189;51.240;9.964;2023-10-08T03:21:10;17.10;;;8.32;;
54909;SDS011;63189;51.240;9.964;2023-10-08T03:23:48;16.95;;;7.38;;
54909;SDS011;63189;51.240;9.964;2023-10-08T03:26:15;16.13;;;7.00;;
54909;SDS011;63189;51.240;9.964;2023-10-08T03:28:56;17.30;;;7.47;;
54909;SDS011;63189;51.240;9.964;2023-10-08T03:31:24;15.70;;;6.95;;
54909;SDS011;63189;51.240;9.964;2023-10-08T03:36:37;16.15;;;7.47;;
54909;SDS011;63189;51.240;9.964;2023-10-08T03:39:09;17.35;;;7.32;;
54909;SDS011;63189;51.240;9.964;2023-10-08T03:41:41;13.27;;;6.65;;
54909;SDS011;63189;51.240;9.964;2023-10-08T03:44:06;18.83;;;7.35;;
54909;SDS011;63189;51.240;9.964;2023-10-08T03:46:39;13.38;;;7.25;;
54909;SDS011;63189;51.240;9.964;2023-10-08T03:49:08;16.17;;;6.97;;
54909;SDS011;63189;51.240;9.964;2023-10-08T03:51:45;15.32;;;6.93;;
54909;SDS011;63189;51.240;9.964;2023-10-08T03:54:11;17.30;;;7.57;;
54909;SDS011;63189;51.240;9.964;2023-10-08T03:56:39;12.45;;;7.80;;
54909;SDS011;63189;51.240;9.964;2023-10-08T03:59:10;14.00;;;7.50;;
54909;SDS011;63189;51.240;9.964;2023-10-08T04:01:40;15.70;;;7.60;;
54909;SDS011;63189;51.240;9.964;2023-10-08T04:04:06;14.77;;;7.05;;
54909;SDS011;63189;51.240;9.964;2023-10-08T04:06:37;16.73;;;8.32;;
54909;SDS011;63189;51.240;9.964;2023-10-08T04:09:03;15.15;;;7.70;;
54909;SDS011;63189;51.240;9.964;2023-10-08T04:11:49;12.20;;;5.72;;
54909;SDS011;63189;51.240;9.964;2023-10-08T04:14:18;9.88;;;4.15;;
54909;SDS011;63189;51.240;9.964;2023-10-08T04:16:45;6.25;;;3.38;;
54909;SDS011;63189;51.240;9.964;2023-10-08T04:19:11;8.20;;;3.55;;
54909;SDS011;63189;51.240;9.964;2023-10-08T04:21:37;6.28;;;3.10;;
54909;SDS011;63189;51.240;9.964;2023-10-08T04:24:04;7.10;;;3.42;;
54909;SDS011;63189;51.240;9.964;2023-10-08T04:26:30;7.43;;;3.20;;
54909;SDS011;63189;51.240;9.964;2023-10-08T04:28:57;8.93;;;3.30;;
54909;SDS011;63189;51.240;9.964;2023-10-08T04:31:27;4.82;;;2.45;;
54909;SDS011;63189;51.240;9.964;2023-10-08T04:34:03;6.78;;;2.70;;
54909;SDS011;63189;51.240;9.964;2023-10-08T04:36:40;7.85;;;2.42;;
54909;SDS011;63189;51.240;9.964;2023-10-08T04:39:13;8.10;;;2.50;;
54909;SDS011;63189;51.240;9.964;2023-10-08T04:41:46;4.13;;;1.95;;
54909;SDS011;63189;51.240;9.964;2023-10-08T04:44:13;3.78;;;2.15;;
54909;SDS011;63189;51.240;9.964;2023-10-08T04:46:42;3.28;;;1.75;;
54909;SDS011;63189;51.240;9.964;2023-10-08T04:49:10;4.90;;;1.65;;
54909;SDS011;63189;51.240;9.964;2023-10-08T04:51:48;3.33;;;0.95;;
54909;SDS011;63189;51.240;9.964;2023-10-08T04:54:14;3.67;;;1.20;;
54909;SDS011;63189;51.240;9.964;2023-10-08T04:56:42;1.73;;;0.88;;
54909;SDS011;63189;51.240;9.964;2023-10-08T04:59:08;1.27;;;0.70;;
54909;SDS011;63189;51.240;9.964;2023-10-08T05:01:36;1.65;;;0.80;;
54909;SDS011;63189;51.240;9.964;2023-10-08T05:04:34;0.88;;;0.75;;
54909;SDS011;63189;51.240;9.964;2023-10-08T05:07:12;1.08;;;0.82;;
54909;SDS011;63189;51.240;9.964;2023-10-08T05:10:06;1.03;;;0.60;;
54909;SDS011;63189;51.240;9.964;2023-10-08T05:12:32;18.95;;;1.70;;
54909;SDS011;63189;51.240;9.964;2023-10-08T05:15:00;1.75;;;0.95;;
54909;SDS011;63189;51.240;9.964;2023-10-08T05:17:46;2.58;;;0.82;;
54909;SDS011;63189;51.240;9.964;2023-10-08T05:20:18;0.63;;;0.50;;
54909;SDS011;63189;51.240;9.964;2023-10-08T05:23:09;1.13;;;0.60;;
54909;SDS011;63189;51.240;9.964;2023-10-08T05:25:54;0.52;;;0.40;;
54909;SDS011;63189;51.240;9.964;2023-10-08T05:28:23;2.05;;;0.50;;
54909;SDS011;63189;51.240;9.964;2023-10-08T05:30:49;0.82;;;0.50;;
54909;SDS011;63189;51.240;9.964;2023-10-08T05:33:20;0.50;;;0.50;;
54909;SDS011;63189;51.240;9.964;2023-10-08T05:36:09;0.50;;;0.50;;
54909;SDS011;63189;51.240;9.964;2023-10-08T05:38:44;0.50;;;0.50;;
54909;SDS011;63189;51.240;9.964;2023-10-08T05:41:25;0.20;;;0.20;;
54909;SDS011;63189;51.240;9.964;2023-10-08T05:44:04;0.30;;;0.30;;
54909;SDS011;63189;51.240;9.964;2023-10-08T05:46:44;1.48;;;0.20;;
54909;SDS011;63189;51.240;9.964;2023-10-08T05:49:18;0.20;;;0.20;;
54909;SDS011;63189;51.240;9.964;2023-10-08T05:51:55;0.20;;;0.10;;
54909;SDS011;63189;51.240;9.964;2023-10-08T05:54:21;0.20;;;0.20;;
54909;SDS011;63189;51.240;9.964;2023-10-08T05:56:54;0.85;;;0.20;;
54909;SDS011;63189;51.240;9.964;2023-10-08T05:59:42;0.35;;;0.20;;
54909;SDS011;63189;51.240;9.964;2023-10-08T06:02:18;0.38;;;0.10;;
54909;SDS011;63189;51.240;9.964;2023-10-08T06:04:53;0.25;;;0.20;;
54909;SDS011;63189;51.240;9.964;2023-10-08T06:07:39;0.35;;;0.10;;
54909;SDS011;63189;51.240;9.964;2023-10-08T06:10:27;0.10;;;0.10;;
54909;SDS011;63189;51.240;9.964;2023-10-08T06:15:34;1.15;;;0.10;;
54909;SDS011;63189;51.240;9.964;2023-10-08T06:18:24;1.30;;;0.20;;
54909;SDS011;63189;51.240;9.964;2023-10-08T06:20:56;0.10;;;0.10;;
54909;SDS011;63189;51.240;9.964;2023-10-08T06:23:29;0.60;;;0.30;;
54909;SDS011;63189;51.240;9.964;2023-10-08T06:25:58;0.85;;;0.30;;
54909;SDS011;63189;51.240;9.964;2023-10-08T06:28:30;0.97;;;0.30;;
54909;SDS011;63189;51.240;9.964;2023-10-08T06:30:59;0.30;;;0.20;;
54909;SDS011;63189;51.240;9.964;2023-10-08T06:33:26;2.25;;;0.90;;
54909;SDS011;63189;51.240;9.964;2023-10-08T06:35:56;0.80;;;0.55;;
54909;SDS011;63189;51.240;9.964;2023-10-08T06:38:34;0.82;;;0.28;;
54909;SDS011;63189;51.240;9.964;2023-10-08T06:41:00;0.68;;;0.30;;
54909;SDS011;63189;51.240;9.964;2023-10-08T06:43:37;0.30;;;0.20;;
54909;SDS011;63189;51.240;9.964;2023-10-08T06:46:05;1.55;;;0.50;;
54909;SDS011;63189;51.240;9.964;2023-10-08T06:48:37;1.42;;;0.50;;
54909;SDS011;63189;51.240;9.964;2023-10-08T06:51:07;1.05;;;0.70;;
54909;SDS011;63189;51.240;9.964;2023-10-08T06:53:38;1.40;;;0.40;;
54909;SDS011;63189;51.240;9.964;2023-10-08T06:56:07;0.45;;;0.30;;
54909;SDS011;63189;51.240;9.964;2023-10-08T06:58:35;0.30;;;0.30;;
54909;SDS011;63189;51.240;9.964;2023-10-08T07:01:00;0.85;;;0.50;;
54909;SDS011;63189;51.240;9.964;2023-10-08T07:03:29;2.65;;;2.15;;
54909;SDS011;63189;51.240;9.964;2023-10-08T07:05:56;1.70;;;1.13;;
54909;SDS011;63189;51.240;9.964;2023-10-08T07:08:31;1.85;;;0.70;;
54909;SDS011;63189;51.240;9.964;2023-10-08T07:10:58;0.90;;;0.63;;
54909;SDS011;63189;51.240;9.964;2023-10-08T07:13:34;2.05;;;0.40;;
54909;SDS011;63189;51.240;9.964;2023-10-08T07:16:01;2.35;;;0.60;;
54909;SDS011;63189;51.240;9.964;2023-10-08T07:18:29;1.42;;;0.52;;
54909;SDS011;63189;51.240;9.964;2023-10-08T07:20:56;2.90;;;0.80;;
54909;SDS011;63189;51.240;9.964;2023-10-08T07:23:26;2.05;;;0.50;;
54909;SDS011;63189;51.240;9.964;2023-10-08T07:26:00;2.67;;;0.73;;
54909;SDS011;63189;51.240;9.964;2023-10-08T07:28:38;3.67;;;0.85;;
54909;SDS011;63189;51.240;9.964;2023-10-08T07:31:13;1.88;;;0.80;;
54909;SDS011;63189;51.240;9.964;2023-10-08T07:33:41;2.05;;;0.60;;
54909;SDS011;63189;51.240;9.964;2023-10-08T07:36:09;3.67;;;0.80;;
54909;SDS011;63189;51.240;9.964;2023-10-08T07:38:39;2.10;;;0.88;;
54909;SDS011;63189;51.240;9.964;2023-10-08T07:41:07;1.10;;;0.52;;
54909;SDS011;63189;51.240;9.964;2023-10-08T07:43:34;3.40;;;0.80;;
54909;SDS011;63189;51.240;9.964;2023-10-08T07:46:00;2.05;;;0.50;;
54909;SDS011;63189;51.240;9.964;2023-10-08T07:48:26;2.63;;;0.70;;
54909;SDS011;63189;51.240;9.964;2023-10-08T07:50:55;2.67;;;0.80;;
54909;SDS011;63189;51.240;9.964;2023-10-08T07:53:21;1.63;;;0.50;;
54909;SDS011;63189;51.240;9.964;2023-10-08T07:55:49;2.45;;;0.80;;
54909;SDS011;63189;51.240;9.964;2023-10-08T07:58:15;2.75;;;1.17;;
54909;SDS011;63189;51.240;9.964;2023-10-08T08:00:41;4.82;;;1.45;;
54909;SDS011;63189;51.240;9.964;2023-10-08T08:03:16;3.90;;;0.80;;
54909;SDS011;63189;51.240;9.964;2023-10-08T08:05:43;2.13;;;1.05;;
54909;SDS011;63189;51.240;9.964;2023-10-08T08:08:09;1.70;;;0.77;;
54909;SDS011;63189;51.240;9.964;2023-10-08T08:10:34;3.85;;;1.25;;
54909;SDS011;63189;51.240;9.964;2023-10-08T08:13:04;1.88;;;0.70;;
54909;SDS011;63189;51.240;9.964;2023-10-08T08:15:31;3.72;;;1.63;;
54909;SDS011;63189;51.240;9.964;2023-10-08T08:17:58;3.10;;;0.70;;
54909;SDS011;63189;51.240;9.964;2023-10-08T08:20:25;2.45;;;1.00;;
54909;SDS011;63189;51.240;9.964;2023-10-08T08:23:00;3.88;;;1.92;;
54909;SDS011;63189;51.240;9.964;2023-10-08T08:25:35;4.47;;;1.30;;
54909;SDS011;63189;51.240;9.964;2023-10-08T08:31:02;2.42;;;0.70;;
54909;SDS011;63189;51.240;9.964;2023-10-08T08:33:38;3.10;;;0.65;;
54909;SDS011;63189;51.240;9.964;2023-10-08T08:36:23;1.70;;;0.80;;
54909;SDS011;63189;51.240;9.964;2023-10-08T08:38:50;2.35;;;0.60;;
54909;SDS011;63189;51.240;9.964;2023-10-08T08:41:16;2.70;;;0.80;;
54909;SDS011;63189;51.240;9.964;2023-10-08T08:43:47;3.30;;;1.00;;
54909;SDS011;63189;51.240;9.964;2023-10-08T08:46:13;1.98;;;0.70;;
54909;SDS011;63189;51.240;9.964;2023-10-08T08:48:40;2.35;;;0.73;;
54909;SDS011;63189;51.240;9.964;2023-10-08T08:51:06;1.83;;;1.00;;
54909;SDS011;63189;51.240;9.964;2023-10-08T08:53:34;3.08;;;1.10;;
54909;SDS011;63189;51.240;9.964;2023-10-08T08:55:59;2.50;;;1.00;;
54909;SDS011;63189;51.240;9.964;2023-10-08T08:58:30;7.72;;;1.35;;
54909;SDS011;63189;51.240;9.964;2023-10-08T09:00:57;4.10;;;1.00;;
54909;SDS011;63189;51.240;9.964;2023-10-08T09:03:24;3.03;;;1.17;;
54909;SDS011;63189;51.240;9.964;2023-10-08T09:05:55;2.67;;;0.68;;
54909;SDS011;63189;51.240;9.964;2023-10-08T09:08:21;4.38;;;0.73;;
54909;SDS011;63189;51.240;9.964;2023-10-08T09:10:49;0.90;;;0.70;;
54909;SDS011;63189;51.240;9.964;2023-10-08T09:13:21;2.08;;;0.90;;
54909;SDS011;63189;51.240;9.964;2023-10-08T09:15:48;3.03;;;0.93;;
54909;SDS011;63189;51.240;9.964;2023-10-08T09:18:13;1.63;;;0.65;;
54909;SDS011;63189;51.240;9.964;2023-10-08T09:20:39;3.85;;;0.85;;
54909;SDS011;63189;51.240;9.964;2023-10-08T09:23:13;1.58;;;0.85;;
54909;SDS011;63189;51.240;9.964;2023-10-08T09:25:43;2.28;;;0.70;;
54909;SDS011;63189;51.240;9.964;2023-10-08T09:28:09;2.60;;;0.82;;
54909;SDS011;63189;51.240;9.964;2023-10-08T09:30:38;2.75;;;1.08;;
54909;SDS011;63189;51.240;9.964;2023-10-08T09:33:08;1.92;;;0.77;;
54909;SDS011;63189;51.240;9.964;2023-10-08T09:35:35;2.03;;;1.00;;
54909;SDS011;63189;51.240;9.964;2023-10-08T09:38:05;2.72;;;0.90;;
54909;SDS011;63189;51.240;9.964;2023-10-08T09:40:41;1.55;;;0.65;;
54909;SDS011;63189;51.240;9.964;2023-10-08T09:45:35;2.03;;;0.80;;
54909;SDS011;63189;51.240;9.964;2023-10-08T09:48:02;3.78;;;0.90;;
54909;SDS011;63189;51.240;9.964;2023-10-08T09:50:36;3.47;;;0.85;;
54909;SDS011;63189;51.240;9.964;2023-10-08T09:55:46;4.22;;;0.90;;
54909;SDS011;63189;51.240;9.964;2023-10-08T09:58:19;2.00;;;0.82;;
54909;SDS011;63189;51.240;9.964;2023-10-08T10:00:47;3.13;;;0.90;;
54909;SDS011;63189;51.240;9.964;2023-10-08T10:03:15;3.00;;;0.90;;
54909;SDS011;63189;51.240;9.964;2023-10-08T10:05:44;3.33;;;0.95;;
54909;SDS011;63189;51.240;9.964;2023-10-08T10:08:09;4.03;;;0.90;;
54909;SDS011;63189;51.240;9.964;2023-10-08T10:10:35;4.50;;;1.00;;
54909;SDS011;63189;51.240;9.964;2023-10-08T10:13:03;2.55;;;0.80;;
54909;SDS011;63189;51.240;9.964;2023-10-08T10:15:31;1.77;;;0.80;;
54909;SDS011;63189;51.240;9.964;2023-10-08T10:18:08;2.30;;;0.98;;
54909;SDS011;63189;51.240;9.964;2023-10-08T10:20:38;2.08;;;0.77;;
54909;SDS011;63189;51.240;9.964;2023-10-08T10:23:32;1.08;;;0.60;;
54909;SDS011;63189;51.240;9.964;2023-10-08T10:26:05;3.90;;;0.82;;
54909;SDS011;63189;51.240;9.964;2023-10-08T10:31:39;2.65;;;0.80;;
54909;SDS011;63189;51.240;9.964;2023-10-08T10:34:18;3.78;;;0.90;;
54909;SDS011;63189;51.240;9.964;2023-10-08T10:36:53;2.03;;;1.13;;
54909;SDS011;63189;51.240;9.964;2023-10-08T10:39:22;4.88;;;0.80;;
54909;SDS011;63189;51.240;9.964;2023-10-08T10:42:00;2.17;;;0.80;;
54909;SDS011;63189;51.240;9.964;2023-10-08T10:44:31;3.28;;;0.90;;
54909;SDS011;63189;51.240;9.964;2023-10-08T10:46:57;7.45;;;1.00;;
54909;SDS011;63189;51.240;9.964;2023-10-08T10:49:45;2.30;;;0.82;;
54909;SDS011;63189;51.240;9.964;2023-10-08T10:52:28;2.55;;;0.90;;
54909;SDS011;63189;51.240;9.964;2023-10-08T10:55:00;1.75;;;0.80;;
54909;SDS011;63189;51.240;9.964;2023-10-08T10:57:44;2.72;;;0.80;;
54909;SDS011;63189;51.240;9.964;2023-10-08T11:00:29;2.28;;;0.95;;
54909;SDS011;63189;51.240;9.964;2023-10-08T11:03:00;3.42;;;0.90;;
54909;SDS011;63189;51.240;9.964;2023-10-08T11:05:34;3.72;;;1.17;;
54909;SDS011;63189;51.240;9.964;2023-10-08T11:08:02;6.75;;;2.67;;
54909;SDS011;63189;51.240;9.964;2023-10-08T11:10:30;2.50;;;1.27;;
54909;SDS011;63189;51.240;9.964;2023-10-08T11:12:57;2.15;;;1.02;;
54909;SDS011;63189;51.240;9.964;2023-10-08T11:15:29;2.13;;;0.80;;
54909;SDS011;63189;51.240;9.964;2023-10-08T11:18:14;2.30;;;0.90;;
54909;SDS011;63189;51.240;9.964;2023-10-08T11:20:41;1.50;;;0.60;;
54909;SDS011;63189;51.240;9.964;2023-10-08T11:26:06;2.15;;;0.73;;
54909;SDS011;63189;51.240;9.964;2023-10-08T11:28:32;1.55;;;0.60;;
54909;SDS011;63189;51.240;9.964;2023-10-08T11:31:05;2.28;;;0.70;;
54909;SDS011;63189;51.240;9.964;2023-10-08T11:33:36;1.48;;;0.52;;
54909;SDS011;63189;51.240;9.964;2023-10-08T11:36:02;1.52;;;0.70;;
54909;SDS011;63189;51.240;9.964;2023-10-08T11:38:39;1.10;;;0.60;;
54909;SDS011;63189;51.240;9.964;2023-10-08T11:41:11;1.98;;;0.70;;
54909;SDS011;63189;51.240;9.964;2023-10-08T11:43:47;1.52;;;0.52;;
54909;SDS011;63189;51.240;9.964;2023-10-08T11:46:18;2.08;;;0.80;;
54909;SDS011;63189;51.240;9.964;2023-10-08T11:48:44;1.35;;;0.70;;
54909;SDS011;63189;51.240;9.964;2023-10-08T11:51:11;3.75;;;0.80;;
54909;SDS011;63189;51.240;9.964;2023-10-08T11:53:41;3.75;;;0.77;;
54909;SDS011;63189;51.240;9.964;2023-10-08T11:56:11;3.17;;;1.10;;
54909;SDS011;63189;51.240;9.964;2023-10-08T11:58:39;1.23;;;0.52;;
54909;SDS011;63189;51.240;9.964;2023-10-08T12:01:05;1.27;;;0.80;;
54909;SDS011;63189;51.240;9.964;2023-10-08T12:03:31;2.22;;;0.63;;
54909;SDS011;63189;51.240;9.964;2023-10-08T12:05:56;6.72;;;1.00;;
54909;SDS011;63189;51.240;9.964;2023-10-08T12:08:25;2.65;;;1.00;;
54909;SDS011;63189;51.240;9.964;2023-10-08T12:10:52;2.47;;;0.82;;
54909;SDS011;63189;51.240;9.964;2023-10-08T12:13:19;1.83;;;0.75;;
54909;SDS011;63189;51.240;9.964;2023-10-08T12:15:49;1.50;;;0.77;;
54909;SDS011;63189;51.240;9.964;2023-10-08T12:18:16;2.83;;;0.98;;
54909;SDS011;63189;51.240;9.964;2023-10-08T12:20:49;1.65;;;0.63;;
54909;SDS011;63189;51.240;9.964;2023-10-08T12:23:15;2.05;;;0.70;;
54909;SDS011;63189;51.240;9.964;2023-10-08T12:25:51;1.23;;;0.47;;
54909;SDS011;63189;51.240;9.964;2023-10-08T12:28:18;2.55;;;0.63;;
54909;SDS011;63189;51.240;9.964;2023-10-08T12:30:44;1.30;;;0.60;;
54909;SDS011;63189;51.240;9.964;2023-10-08T12:33:10;2.25;;;0.82;;
54909;SDS011;63189;51.240;9.964;2023-10-08T12:35:38;1.92;;;0.60;;
54909;SDS011;63189;51.240;9.964;2023-10-08T12:38:05;2.30;;;0.60;;
54909;SDS011;63189;51.240;9.964;2023-10-08T12:40:30;3.15;;;0.90;;
54909;SDS011;63189;51.240;9.964;2023-10-08T12:43:07;4.82;;;1.42;;
54909;SDS011;63189;51.240;9.964;2023-10-08T12:45:33;1.80;;;0.60;;
54909;SDS011;63189;51.240;9.964;2023-10-08T12:47:58;1.63;;;0.70;;
54909;SDS011;63189;51.240;9.964;2023-10-08T12:50:24;2.17;;;0.65;;
54909;SDS011;63189;51.240;9.964;2023-10-08T12:53:07;2.20;;;0.70;;
54909;SDS011;63189;51.240;9.964;2023-10-08T12:55:33;2.33;;;0.80;;
54909;SDS011;63189;51.240;9.964;2023-10-08T12:58:04;2.28;;;0.88;;
54909;SDS011;63189;51.240;9.964;2023-10-08T13:00:39;2.45;;;0.75;;
54909;SDS011;63189;51.240;9.964;2023-10-08T13:03:07;1.27;;;0.50;;
54909;SDS011;63189;51.240;9.964;2023-10-08T13:05:41;1.02;;;0.70;;
54909;SDS011;63189;51.240;9.964;2023-10-08T13:08:09;2.20;;;0.68;;
54909;SDS011;63189;51.240;9.964;2023-10-08T13:10:35;1.98;;;0.77;;
54909;SDS011;63189;51.240;9.964;2023-10-08T13:13:03;3.63;;;0.80;;
54909;SDS011;63189;51.240;9.964;2023-10-08T13:15:29;3.38;;;0.80;;
54909;SDS011;63189;51.240;9.964;2023-10-08T13:17:57;1.50;;;0.75;;
54909;SDS011;63189;51.240;9.964;2023-10-08T13:20:22;1.70;;;0.80;;
54909;SDS011;63189;51.240;9.964;2023-10-08T13:22:51;1.58;;;0.50;;
54909;SDS011;63189;51.240;9.964;2023-10-08T13:25:16;1.10;;;0.50;;
54909;SDS011;63189;51.240;9.964;2023-10-08T13:27:42;2.97;;;0.60;;
54909;SDS011;63189;51.240;9.964;2023-10-08T13:30:07;1.45;;;0.60;;
54909;SDS011;63189;51.240;9.964;2023-10-08T13:32:36;2.08;;;0.85;;
54909;SDS011;63189;51.240;9.964;2023-10-08T13:35:04;2.72;;;0.80;;
54909;SDS011;63189;51.240;9.964;2023-10-08T13:37:34;1.35;;;0.68;;
54909;SDS011;63189;51.240;9.964;2023-10-08T13:40:00;1.70;;;0.70;;
54909;SDS011;63189;51.240;9.964;2023-10-08T13:42:25;2.03;;;0.70;;
54909;SDS011;63189;51.240;9.964;2023-10-08T13:44:52;1.73;;;0.77;;
54909;SDS011;63189;51.240;9.964;2023-10-08T13:47:24;2.35;;;0.80;;
54909;SDS011;63189;51.240;9.964;2023-10-08T13:49:51;1.30;;;0.73;;
54909;SDS011;63189;51.240;9.964;2023-10-08T13:52:18;1.55;;;0.80;;
54909;SDS011;63189;51.240;9.964;2023-10-08T13:54:45;1.80;;;0.55;;
54909;SDS011;63189;51.240;9.964;2023-10-08T13:57:12;0.93;;;0.52;;
54909;SDS011;63189;51.240;9.964;2023-10-08T13:59:39;1.10;;;0.60;;
54909;SDS011;63189;51.240;9.964;2023-10-08T14:02:05;1.05;;;0.70;;
54909;SDS011;63189;51.240;9.964;2023-10-08T14:04:39;2.05;;;0.68;;
54909;SDS011;63189;51.240;9.964;2023-10-08T14:07:09;1.88;;;0.55;;
54909;SDS011;63189;51.240;9.964;2023-10-08T14:09:36;2.38;;;0.70;;
54909;SDS011;63189;51.240;9.964;2023-10-08T14:12:03;1.25;;;0.60;;
54909;SDS011;63189;51.240;9.964;2023-10-08T14:14:29;1.17;;;0.70;;
54909;SDS011;63189;51.240;9.964;2023-10-08T14:16:55;1.45;;;0.70;;
54909;SDS011;63189;51.240;9.964;2023-10-08T14:19:25;2.92;;;0.88;;
54909;SDS011;63189;51.240;9.964;2023-10-08T14:22:01;1.88;;;0.60;;
54909;SDS011;63189;51.240;9.964;2023-10-08T14:24:29;1.00;;;0.50;;
54909;SDS011;63189;51.240;9.964;2023-10-08T14:26:57;2.40;;;0.60;;
54909;SDS011;63189;51.240;9.964;2023-10-08T14:29:28;1.25;;;0.60;;
54909;SDS011;63189;51.240;9.964;2023-10-08T14:31:58;2.00;;;0.80;;
54909;SDS011;63189;51.240;9.964;2023-10-08T14:34:24;1.58;;;0.68;;
54909;SDS011;63189;51.240;9.964;2023-10-08T14:37:08;2.05;;;0.77;;
54909;SDS011;63189;51.240;9.964;2023-10-08T14:39:53;1.60;;;0.80;;
54909;SDS011;63189;51.240;9.964;2023-10-08T14:42:37;1.65;;;0.80;;
54909;SDS011;63189;51.240;9.964;2023-10-08T14:45:28;1.27;;;0.57;;
54909;SDS011;63189;51.240;9.964;2023-10-08T14:48:00;2.08;;;0.60;;
54909;SDS011;63189;51.240;9.964;2023-10-08T14:50:26;1.90;;;0.90;;
54909;SDS011;63189;51.240;9.964;2023-10-08T14:52:53;1.73;;;0.77;;
54909;SDS011;63189;51.240;9.964;2023-10-08T14:55:20;1.40;;;0.70;;
54909;SDS011;63189;51.240;9.964;2023-10-08T14:57:47;1.58;;;0.63;;
54909;SDS011;63189;51.240;9.964;2023-10-08T15:00:17;1.52;;;0.60;;
54909;SDS011;63189;51.240;9.964;2023-10-08T15:02:49;0.70;;;0.50;;
54909;SDS011;63189;51.240;9.964;2023-10-08T15:05:15;1.27;;;0.60;;
54909;SDS011;63189;51.240;9.964;2023-10-08T15:07:41;1.15;;;0.60;;
54909;SDS011;63189;51.240;9.964;2023-10-08T15:10:07;1.52;;;0.60;;
54909;SDS011;63189;51.240;9.964;2023-10-08T15:12:34;1.83;;;0.70;;
54909;SDS011;63189;51.240;9.964;2023-10-08T15:15:00;0.93;;;0.55;;
54909;SDS011;63189;51.240;9.964;2023-10-08T15:17:37;1.67;;;0.85;;
54909;SDS011;63189;51.240;9.964;2023-10-08T15:20:03;1.83;;;0.70;;
54909;SDS011;63189;51.240;9.964;2023-10-08T15:22:28;1.70;;;0.80;;
54909;SDS011;63189;51.240;9.964;2023-10-08T15:24:54;0.90;;;0.50;;